Martinez, CA (94553)

6:07 AM PDT on October 20, 2014 (GMT -0700)
Mtz/PH K6RHL | Change Station
CLOSE
Current Station
Personal Weather Station
Location: Martinez, CA
Elevation: 350 ft
Nearby Weather Stations

Elev 350 ft 37.98 °N, 122.10 °W | Updated 13 minutes ago

Mostly Cloudy
Mostly Cloudy
61.7 °F
Feels Like 61.7 °F
N
0.0
Wind Variable Wind from West
Gusts 2.0 mph

Today
High -- | Low -- °F
--% Chance of Precip.
Yesterday
High -- | Low -- °F
Precip. -- in
7:22 AM 6:24 PM
Waning Crescent, 11% visible
Pressure 29.87 in
Visibility 10.0 miles
Clouds Overcast 2300 ft
Dew Point 58 °F
Humidity 86%
Rainfall 0.00 in
Snow Depth Not available.
UV 0 out of 12
Pollen 1.80 out of 12
PM2.5 Good
Flu Activity Sporadic
METAR KCCR 201253Z 15004KT 10SM OVC023 17/13 A2991 RMK AO2 SLP114 T01720133

More Conditions Fewer Conditions

Pressure 29.87 in
Visibility 10.0 miles
Clouds Overcast 2300 ft
Dew Point 58 °F
Humidity 86%
Rainfall 0.00 in
Snow Depth Not available.
UV 0 out of 12
Pollen 1.80 out of 12
PM2.5 Good
Flu Activity Sporadic
METAR KCCR 201253Z 15004KT 10SM OVC023 17/13 A2991 RMK AO2 SLP114 T01720133

More Conditions Fewer Conditions

10-Day Weather Forecast

Almanac

Astronomy

Oct. 20, 2014 Rise Set
Actual Time 7:22 AM PDT 6:24 PM PDT
Civil Twilight 6:55 AM PDT 6:50 PM PDT
Nautical Twilight 6:24 AM PDT 7:21 PM PDT
Astronomical Twilight 5:54 AM PDT 7:51 PM PDT
Moon 4:18 AM PDT 4:47 PM PDT
Length of Visible Light 11h 55m
Length of Day
11h 01m
Waning Crescent, 11% of the Moon is Illuminated
Today
Waning Crescent
Oct 23
New
Oct 30
First Quarter
Nov 6
Full
Nov 14
Last Quarter

Today's Extremes

State Highs State Lows

Community

WunderPhotos

Upload Photos

1,763,363 photos uploaded!

Nearby

Air Quality

  Air Quality AQ Index Pollutant
Yesterday Good
OZONE
Yesterday Good
PM2.5
Current Good
PM2.5
Monday Good
PM2.5
Tuesday Good
PM2.5
Wednesday Good
PM2.5

Snow Depth

Station Depth Elevation
Echo Peak 0 in 7800 ft
Blue Lakes 0 in 8000 ft
Forestdale Creek 0 in 8029 ft
Rubicon #2 1 in 7500 ft
Fallen Leaf 0 in 6300 ft

Earthquake Activity

City Distance Mag. Time & Date
Cobb, California 69 miles 2.5 9:25 PM PDT
2014-10-19
Soledad, California 114 miles 2.6 3:21 PM PDT
2014-10-18
East Foothills, California 48 miles 2.6 8:16 AM PDT
2014-10-18
Minimum magnitude displayed is 2.5.

Coastal Water Temperatures

Place Temperature
San Francisco, CA 63.0 °F
Richmond, CA 64.0 °F
Port Chicago, CA 66.9 °F

Nearby Weather Stations